Paramount, California
Current Conditions -  °F | °C
As of 1:53 AM on Thursday 23 Oct 2014 (Local Time) from KLGB Reporting Station
Clear Clear  
Wind Chill: 64°   Ceiling: Unl
Heat Index: 64°   Visibility: 10mi
Dew Point: 61°   Wind: 0mph
Humidity: 90%   Direction: NA
Pressure: 29.95"   Gusts: NA
Location:  33.89°N, 118.16°W
Report Text: KLGB 230853Z 00000KT 10SM CLR 18/16 A2995 RMK AO2 SLP141 T01780161 58004
Loading
Personal Weather Stations






























Interactive Weather Map
Tropical Storm Tracking
New forecast layout! Learn more

10-Day Weather Forecast

Advertisements
Track Severe Weather on mobile